Time;durP1;ratioP1;P1;durP2;ratioP2;P2;SDS_P1;SDS_P2;PMS_P1;PMS_P2;Temp;Humidity;BMP_temperature;BMP_pressure;BME280_temperature;BME280_humidity;BME280_pressure;Samples;Min_cycle;Max_cycle;Signal;HPM_P1;HPM_P2
2021/11/04 00:00:59;;;;;;;38.42;23.18;;;;;;;8.83;65.72;96209.10;1732938;81;25726;-90
2021/11/04 00:03:26;;;;;;;33.23;20.60;;;;;;;8.81;65.80;96207.19;1753416;80;28099;-89
2021/11/04 00:06:12;;;;;;;31.12;19.55;;;;;;;8.81;65.98;96204.50;1720889;82;25903;-90
2021/11/04 00:08:57;;;;;;;38.63;21.00;;;;;;;8.75;66.04;96200.02;1706128;82;25702;-90
2021/11/04 00:11:24;;;;;;;35.45;20.65;;;;;;;8.76;66.08;96202.19;1755732;80;26633;-89
2021/11/04 00:13:50;;;;;;;36.73;22.07;;;;;;;8.71;66.14;96198.83;1730532;81;25807;-91
2021/11/04 00:16:17;;;;;;;37.10;22.73;;;;;;;8.69;66.22;96199.60;1753272;80;27378;-90
2021/11/04 00:18:44;;;;;;;37.40;21.80;;;;;;;8.67;66.27;96182.87;1734401;80;26059;-89
2021/11/04 00:21:10;;;;;;;42.30;23.60;;;;;;;8.54;66.22;96184.39;1751293;80;25669;-90
2021/11/04 00:23:37;;;;;;;38.50;21.87;;;;;;;8.45;66.39;96183.08;1735930;81;26017;-90
2021/11/04 00:26:04;;;;;;;37.90;22.27;;;;;;;8.38;66.54;96170.23;1724878;81;25658;-89
2021/11/04 00:28:30;;;;;;;33.80;21.15;;;;;;;8.30;66.62;96161.41;1712907;81;27664;-89
2021/11/04 00:30:57;;;;;;;34.48;20.75;;;;;;;8.23;66.70;96155.28;1758626;80;25247;-89
2021/11/04 00:33:43;;;;;;;32.58;20.52;;;;;;;8.14;66.87;96153.96;1710889;81;26419;-89
2021/11/04 00:36:10;;;;;;;36.13;21.40;;;;;;;8.09;67.09;96142.27;1724798;81;25999;-88
2021/11/04 00:38:37;;;;;;;40.45;24.00;;;;;;;8.08;67.18;96143.31;1726982;81;25830;-89
2021/11/04 00:41:04;;;;;;;51.88;27.98;;;;;;;8.04;67.24;96141.59;1730681;81;27538;-88
2021/11/04 00:43:30;;;;;;;66.47;32.83;;;;;;;7.97;67.33;96127.39;1730554;82;26063;-88
2021/11/04 00:45:57;;;;;;;62.25;31.77;;;;;;;7.82;67.31;96131.02;1707885;82;25726;-89
2021/11/04 00:48:36;;;;;;;57.67;32.08;;;;;;;7.75;67.56;96134.28;1707618;82;26956;-89
2021/11/04 00:51:04;;;;;;;56.10;31.57;;;;;;;7.66;67.64;96118.17;1730572;82;25308;-89
2021/11/04 00:53:31;;;;;;;53.90;30.40;;;;;;;7.61;67.76;96114.02;1707925;82;28313;-89
2021/11/04 00:56:00;;;;;;;50.33;30.52;;;;;;;7.52;67.91;96108.09;1730481;82;25812;-89
2021/11/04 00:58:27;;;;;;;54.88;30.55;;;;;;;7.51;68.11;96116.67;1730656;81;25812;-89
2021/11/04 01:00:54;;;;;;;53.68;30.17;;;;;;;7.48;68.18;96114.46;1707871;82;25975;-89
2021/11/04 01:03:26;;;;;;;53.83;29.72;;;;;;;7.42;68.32;96111.31;1730546;82;25682;-89
2021/11/04 01:05:53;;;;;;;49.17;29.63;;;;;;;7.43;68.46;96113.47;1708120;82;27469;-89
2021/11/04 01:08:19;;;;;;;51.90;28.57;;;;;;;7.43;68.58;96100.88;1730586;81;25785;-88
2021/11/04 01:10:46;;;;;;;45.80;27.30;;;;;;;7.38;68.74;96092.66;1708008;82;25830;-90
2021/11/04 01:13:13;;;;;;;45.60;27.82;;;;;;;7.29;68.78;96076.55;1730642;82;26578;-89
2021/11/04 01:15:40;;;;;;;47.53;27.70;;;;;;;7.29;68.87;96075.73;1707861;82;25467;-90
2021/11/04 01:18:08;;;;;;;50.40;28.15;;;;;;;7.28;68.95;96065.52;1725290;82;28203;-90
2021/11/04 01:20:35;;;;;;;51.83;30.17;;;;;;;7.31;69.05;96081.18;1752843;80;25977;-90
2021/11/04 01:23:02;;;;;;;47.17;26.97;;;;;;;7.35;69.12;96088.27;1725483;81;25918;-90
2021/11/04 01:25:29;;;;;;;48.68;27.85;;;;;;;7.22;69.20;96094.08;1751322;80;26176;-90
2021/11/04 01:27:55;;;;;;;54.67;28.23;;;;;;;7.08;69.31;96101.13;1736591;81;25771;-89
2021/11/04 01:30:22;;;;;;;47.40;27.25;;;;;;;7.07;69.50;96111.56;1729042;81;27433;-89
2021/11/04 01:32:48;;;;;;;49.75;29.07;;;;;;;7.08;69.69;96106.50;1755066;80;25871;-89
2021/11/04 01:35:15;;;;;;;48.00;27.82;;;;;;;7.03;69.78;96103.64;1742887;80;25750;-89
2021/11/04 01:37:42;;;;;;;49.48;29.45;;;;;;;7.01;69.87;96104.38;1744450;81;26137;-91
2021/11/04 01:40:09;;;;;;;51.13;29.50;;;;;;;7.07;69.91;96111.56;1724115;81;25798;-91
2021/11/04 01:42:36;;;;;;;44.40;27.37;;;;;;;7.13;69.95;96101.27;1753977;80;27350;-91
2021/11/04 01:45:04;;;;;;;49.13;28.40;;;;;;;7.12;70.04;96103.69;1718876;82;25261;-91
2021/11/04 01:47:31;;;;;;;45.50;28.32;;;;;;;7.03;70.02;96105.81;1718629;82;26154;-91
2021/11/04 01:49:58;;;;;;;51.92;28.80;;;;;;;7.01;70.16;96093.65;1718707;82;26237;-89
2021/11/04 01:52:25;;;;;;;49.10;28.95;;;;;;;6.95;70.39;96084.64;1720106;81;25336;-91
2021/11/04 01:54:51;;;;;;;53.90;29.02;;;;;;;6.92;70.36;96086.41;1742886;81;27615;-90
2021/11/04 01:57:18;;;;;;;47.78;29.12;;;;;;;6.96;70.49;96078.75;1718916;82;25229;-91
2021/11/04 01:59:44;;;;;;;49.18;28.45;;;;;;;6.98;70.48;96068.63;1718940;82;25845;-91
2021/11/04 02:02:18;;;;;;;50.52;28.73;;;;;;;6.99;70.51;96063.56;1697191;81;26624;-92
2021/11/04 02:05:02;;;;;;;51.70;29.75;;;;;;;6.99;70.60;96051.49;1752534;80;25911;-92
2021/11/04 02:07:40;;;;;;;53.00;28.98;;;;;;;6.99;70.73;96060.87;1737300;81;27432;-91
2021/11/04 02:10:11;;;;;;;48.85;27.65;;;;;;;6.97;70.75;96054.39;1746383;80;26426;-89
2021/11/04 02:12:50;;;;;;;46.70;27.80;;;;;;;6.95;70.83;96052.45;1738293;80;25769;-88
2021/11/04 02:15:20;;;;;;;47.78;27.77;;;;;;;6.96;70.91;96058.11;1722096;81;26002;-89
2021/11/04 02:17:48;;;;;;;46.88;27.05;;;;;;;6.93;70.95;96051.02;1722281;82;25781;-89
2021/11/04 02:20:29;;;;;;;40.55;25.82;;;;;;;6.88;71.13;96039.08;1724658;81;27596;-89
2021/11/04 02:23:03;;;;;;;46.33;26.37;;;;;;;6.88;71.17;96028.34;1724916;81;25757;-88
2021/11/04 02:25:33;;;;;;;42.20;25.82;;;;;;;6.88;71.21;96025.40;1747975;80;25741;-89
2021/11/04 02:28:04;;;;;;;44.50;26.55;;;;;;;6.92;71.33;96025.23;1738936;80;25933;-88
2021/11/04 02:30:32;;;;;;;45.95;26.15;;;;;;;6.91;71.36;96027.09;1724979;81;25662;-88
2021/11/04 02:33:00;;;;;;;46.25;26.23;;;;;;;6.91;71.46;96023.59;1743338;80;28004;-88
2021/11/04 02:35:27;;;;;;;43.23;26.02;;;;;;;6.88;71.43;96018.17;1729679;81;25951;-89
2021/11/04 02:37:55;;;;;;;47.00;25.62;;;;;;;6.91;71.45;96006.16;1724843;81;25944;-89
2021/11/04 02:40:24;;;;;;;40.40;24.02;;;;;;;6.87;71.44;96017.88;1724955;81;26033;-89
2021/11/04 02:42:52;;;;;;;42.35;25.60;;;;;;;6.85;71.49;96019.42;1725058;81;25937;-89
2021/11/04 02:45:23;;;;;;;36.90;23.20;;;;;;;6.85;71.54;96015.92;1725044;81;27639;-89
2021/11/04 02:47:50;;;;;;;37.83;24.07;;;;;;;6.84;71.54;96015.63;1724981;81;26233;-89
2021/11/04 02:50:18;;;;;;;38.23;22.82;;;;;;;6.86;71.54;96014.37;1724800;82;26328;-89
2021/11/04 02:52:45;;;;;;;43.20;23.90;;;;;;;6.83;71.49;96012.12;1725035;81;26067;-90
2021/11/04 02:55:12;;;;;;;36.90;22.32;;;;;;;6.81;71.51;96006.16;1724970;81;25766;-90
2021/11/04 02:57:48;;;;;;;37.23;21.95;;;;;;;6.79;71.60;96002.05;1748721;81;27518;-90
2021/11/04 03:00:17;;;;;;;37.85;22.67;;;;;;;6.74;71.60;95997.36;1757825;80;25252;-90
2021/11/04 03:02:44;;;;;;;39.55;24.63;;;;;;;6.74;71.79;95993.34;1729020;81;25964;-90
2021/11/04 03:05:11;;;;;;;36.63;24.20;;;;;;;6.72;71.94;95988.72;1739253;81;26036;-90
2021/11/04 03:07:37;;;;;;;40.10;23.10;;;;;;;6.67;72.01;95999.27;1725027;81;25262;-89
2021/11/04 03:10:06;;;;;;;37.78;24.02;;;;;;;6.60;72.00;96003.89;1725089;81;27600;-90
2021/11/04 03:12:33;;;;;;;36.85;22.13;;;;;;;6.56;72.18;96006.70;1724782;81;25305;-90
2021/11/04 03:15:01;;;;;;;36.73;22.60;;;;;;;6.53;72.23;96003.62;1724940;81;25743;-91
2021/11/04 03:17:28;;;;;;;39.27;23.15;;;;;;;6.54;72.28;96006.09;1720310;82;25833;-91
2021/11/04 03:19:55;;;;;;;38.35;22.65;;;;;;;6.52;72.33;96008.72;1694363;84;25825;-91
2021/11/04 03:22:23;;;;;;;36.38;23.12;;;;;;;6.55;72.38;96004.23;1710107;83;28053;-90
2021/11/04 03:24:50;;;;;;;36.63;23.57;;;;;;;6.57;72.33;95998.14;1710004;83;25914;-91
2021/11/04 03:27:17;;;;;;;35.92;22.90;;;;;;;6.59;72.35;95996.88;1709977;83;25497;-91
2021/11/04 03:29:44;;;;;;;34.83;21.37;;;;;;;6.62;72.36;96004.49;1709969;83;26658;-90
2021/11/04 03:32:18;;;;;;;33.18;22.50;;;;;;;6.64;72.40;96002.39;1709923;83;25770;-90
2021/11/04 03:34:45;;;;;;;39.25;24.47;;;;;;;6.66;72.37;95993.61;1710166;83;27387;-89
2021/11/04 03:37:14;;;;;;;40.25;23.92;;;;;;;6.65;72.35;95995.16;1709958;82;25866;-89
2021/11/04 03:39:43;;;;;;;41.08;23.47;;;;;;;6.57;72.32;96008.34;1709892;83;26397;-90
2021/11/04 03:42:11;;;;;;;41.45;21.90;;;;;;;6.53;72.48;96008.98;1710106;83;25966;-89
2021/11/04 03:44:41;;;;;;;40.55;23.85;;;;;;;6.51;72.60;96013.26;1710152;83;25758;-89
2021/11/04 03:47:09;;;;;;;34.03;21.45;;;;;;;6.45;72.55;96011.44;1710014;83;28323;-89
2021/11/04 03:49:36;;;;;;;39.00;21.65;;;;;;;6.40;72.68;96001.91;1709634;83;25862;-88
2021/11/04 03:52:04;;;;;;;37.73;22.77;;;;;;;6.38;72.85;96008.00;1710076;83;25758;-88
2021/11/04 03:54:32;;;;;;;35.28;22.25;;;;;;;6.39;72.91;96002.95;1710030;83;25986;-88
2021/11/04 03:56:59;;;;;;;34.38;22.42;;;;;;;6.34;72.89;95999.58;1710137;83;26483;-88
2021/11/04 03:59:26;;;;;;;38.63;23.02;;;;;;;6.30;72.91;95997.54;1710073;83;27391;-88
2021/11/04 04:01:54;;;;;;;37.60;23.02;;;;;;;6.24;73.00;95991.73;1709960;83;25583;-89
2021/11/04 04:04:21;;;;;;;37.30;23.10;;;;;;;6.25;73.06;95980.80;1709996;83;25783;-89
2021/11/04 04:06:53;;;;;;;39.48;24.05;;;;;;;6.27;73.08;95969.34;1709928;83;26775;-89
2021/11/04 04:09:23;;;;;;;40.05;24.50;;;;;;;6.28;73.09;95970.95;1709766;82;25290;-88
2021/11/04 04:11:51;;;;;;;41.00;22.82;;;;;;;6.28;73.09;95961.58;1709806;83;28233;-90
2021/11/04 04:14:18;;;;;;;40.38;23.15;;;;;;;6.28;73.06;95965.59;1709948;83;25941;-89
2021/11/04 04:16:44;;;;;;;40.28;23.40;;;;;;;6.28;73.08;95960.23;1710024;83;25802;-90
2021/11/04 04:19:11;;;;;;;36.95;22.07;;;;;;;6.33;73.17;95951.55;1697974;82;26768;-90
2021/11/04 04:21:38;;;;;;;36.95;22.58;;;;;;;6.33;73.22;95950.21;1696267;83;25811;-90
2021/11/04 04:24:05;;;;;;;35.85;22.15;;;;;;;6.24;73.22;95944.84;1696402;82;27454;-90
2021/11/04 04:26:33;;;;;;;35.08;21.87;;;;;;;6.14;73.39;95946.16;1696324;82;25860;-89
2021/11/04 04:28:59;;;;;;;33.30;20.48;;;;;;;6.13;73.52;95939.16;1696405;83;25760;-90
2021/11/04 04:31:26;;;;;;;31.60;20.57;;;;;;;6.16;73.64;95947.80;1696347;82;26203;-90
2021/11/04 04:33:52;;;;;;;32.67;19.62;;;;;;;6.21;73.71;95954.13;1696371;82;25692;-90
2021/11/04 04:36:19;;;;;;;30.97;20.17;;;;;;;6.26;73.80;95948.13;1696272;82;28271;-89
2021/11/04 04:38:45;;;;;;;29.98;20.12;;;;;;;6.25;73.97;95949.98;1696192;82;25767;-89
2021/11/04 04:41:12;;;;;;;36.10;20.65;;;;;;;6.28;74.00;95946.84;1696448;82;25672;-89
2021/11/04 04:43:39;;;;;;;37.30;20.95;;;;;;;6.30;74.02;95957.34;1696389;82;25984;-90
2021/11/04 04:46:05;;;;;;;40.95;21.55;;;;;;;6.33;74.01;95957.73;1696453;82;26449;-90
2021/11/04 04:48:32;;;;;;;36.40;22.00;;;;;;;6.37;74.02;95953.58;1696369;83;27235;-89
2021/11/04 04:50:58;;;;;;;36.53;21.90;;;;;;;6.39;74.01;95948.83;1696007;84;25891;-90
2021/11/04 04:53:25;;;;;;;32.40;20.90;;;;;;;6.42;74.00;95936.81;1696315;82;25753;-89
2021/11/04 04:55:52;;;;;;;30.70;19.17;;;;;;;6.41;74.06;95933.31;1696309;82;26689;-90
2021/11/04 04:58:18;;;;;;;33.15;20.82;;;;;;;6.40;74.10;95936.25;1696326;82;26483;-89
2021/11/04 05:00:45;;;;;;;32.25;19.98;;;;;;;6.41;74.18;95938.68;1696257;82;27492;-89
2021/11/04 05:03:12;;;;;;;32.73;19.95;;;;;;;6.37;74.21;95940.18;1696344;82;26577;-89
2021/11/04 05:05:38;;;;;;;30.32;18.82;;;;;;;6.34;74.33;95938.45;1696469;83;25832;-89
2021/11/04 05:08:05;;;;;;;29.82;16.87;;;;;;;6.37;74.68;95938.02;1696248;82;25974;-89
2021/11/04 05:10:31;;;;;;;28.17;18.10;;;;;;;6.40;74.81;95925.52;1696307;84;25763;-88
2021/11/04 05:12:58;;;;;;;32.88;18.75;;;;;;;6.42;74.89;95921.56;1696232;82;28045;-89
2021/11/04 05:15:25;;;;;;;34.15;19.52;;;;;;;6.46;74.92;95914.72;1696192;84;25278;-88
2021/11/04 05:17:51;;;;;;;29.12;18.07;;;;;;;6.50;74.96;95915.11;1696180;83;25765;-90
2021/11/04 05:20:18;;;;;;;28.90;15.90;;;;;;;6.50;74.94;95907.89;1696866;82;25875;-89
2021/11/04 05:22:44;;;;;;;23.10;14.20;;;;;;;6.54;75.08;95896.70;1698379;82;25679;-89
2021/11/04 05:25:11;;;;;;;12.37;8.03;;;;;;;6.70;75.83;95892.92;1696280;82;27451;-89
2021/11/04 05:27:38;;;;;;;10.80;7.65;;;;;;;6.99;76.93;95879.80;1696302;84;25692;-89
2021/11/04 05:30:06;;;;;;;15.35;6.95;;;;;;;7.39;77.18;95879.53;1696353;82;25742;-89
2021/11/04 05:32:33;;;;;;;11.38;6.42;;;;;;;7.71;77.28;95874.74;1696194;82;26796;-89
2021/11/04 05:35:00;;;;;;;9.03;6.40;;;;;;;7.96;77.13;95858.43;1696419;82;25734;-89
2021/11/04 05:37:26;;;;;;;10.43;5.97;;;;;;;8.18;76.96;95852.77;1696414;82;27614;-89
2021/11/04 05:39:53;;;;;;;12.80;5.72;;;;;;;8.39;76.70;95864.00;1696295;82;25702;-90
2021/11/04 05:42:19;;;;;;;10.80;5.60;;;;;;;8.52;76.48;95854.34;1696498;82;25719;-90
2021/11/04 05:44:46;;;;;;;7.78;5.70;;;;;;;8.67;76.34;95843.92;1696370;84;26386;-88
2021/11/04 05:47:13;;;;;;;7.50;5.08;;;;;;;8.80;76.22;95843.66;1696447;82;25711;-88
2021/11/04 05:49:39;;;;;;;8.65;5.80;;;;;;;8.90;76.06;95849.24;1696140;82;28246;-88
2021/11/04 05:52:06;;;;;;;8.58;5.53;;;;;;;9.03;75.97;95839.55;1696139;82;25792;-89
2021/11/04 05:54:33;;;;;;;12.65;5.87;;;;;;;9.18;75.79;95835.49;1696490;82;25788;-89
2021/11/04 05:57:00;;;;;;;9.93;4.78;;;;;;;9.30;75.78;95838.42;1696602;82;26657;-89
2021/11/04 05:59:27;;;;;;;8.33;4.50;;;;;;;9.37;75.50;95826.99;1696315;82;25783;-89
2021/11/04 06:01:54;;;;;;;6.40;4.03;;;;;;;9.48;75.38;95822.60;1696387;82;27348;-89
2021/11/04 06:04:21;;;;;;;10.78;5.45;;;;;;;9.54;75.13;95833.73;1696386;82;25847;-89
2021/11/04 06:06:48;;;;;;;8.13;4.42;;;;;;;9.59;75.07;95826.28;1696357;82;25786;-89
2021/11/04 06:09:15;;;;;;;9.73;5.28;;;;;;;9.66;74.90;95821.02;1696336;82;26021;-89
2021/11/04 06:11:41;;;;;;;9.55;5.67;;;;;;;9.75;74.80;95824.14;1696482;82;25723;-90
2021/11/04 06:14:08;;;;;;;7.85;5.22;;;;;;;9.79;74.64;95823.92;1696534;82;27364;-90
2021/11/04 06:16:35;;;;;;;8.78;5.35;;;;;;;9.81;74.53;95820.45;1696335;82;25840;-89
2021/11/04 06:19:01;;;;;;;7.58;4.35;;;;;;;9.87;74.50;95824.88;1696277;82;26584;-89
2021/11/04 06:21:28;;;;;;;8.03;5.03;;;;;;;10.00;74.52;95825.08;1696403;82;26025;-89
2021/11/04 06:23:54;;;;;;;9.00;5.22;;;;;;;10.14;74.41;95823.69;1696416;82;25913;-90
2021/11/04 06:26:21;;;;;;;8.78;5.65;;;;;;;10.21;74.19;95828.40;1696423;83;28365;-90
2021/11/04 06:28:47;;;;;;;8.40;5.05;;;;;;;10.24;73.97;95826.56;1696379;82;25657;-90
2021/11/04 06:31:14;;;;;;;19.02;11.50;;;;;;;10.27;73.85;95835.48;1696520;82;25783;-89
2021/11/04 06:33:41;;;;;;;10.93;7.10;;;;;;;10.33;73.81;95835.05;1696378;82;26033;-89
2021/11/04 06:36:07;;;;;;;6.37;4.72;;;;;;;10.38;73.64;95833.78;1696449;83;25293;-90
2021/11/04 06:38:34;;;;;;;10.43;5.25;;;;;;;10.41;73.58;95843.52;1696384;82;27361;-90
2021/11/04 06:41:01;;;;;;;6.80;4.55;;;;;;;10.46;73.50;95853.05;1696098;82;25727;-88
2021/11/04 06:43:29;;;;;;;7.95;4.37;;;;;;;10.52;73.40;95851.75;1696316;82;25799;-89
2021/11/04 06:45:57;;;;;;;10.95;5.60;;;;;;;10.64;73.34;95853.28;1696361;83;25990;-89
2021/11/04 06:48:42;;;;;;;8.25;5.22;;;;;;;10.73;73.15;95850.98;1696497;82;25792;-89
2021/11/04 06:51:12;;;;;;;10.13;5.35;;;;;;;10.80;73.02;95844.33;1696300;82;28083;-85
2021/11/04 06:53:55;;;;;;;9.13;4.75;;;;;;;10.88;72.87;95849.81;1696089;82;25772;-89
2021/11/04 06:56:24;;;;;;;7.67;4.95;;;;;;;11.00;72.74;95830.25;1681099;82;25822;-88
2021/11/04 06:58:54;;;;;;;9.63;4.97;;;;;;;11.08;72.57;95807.41;1696446;84;26159;-88
2021/11/04 07:01:22;;;;;;;13.13;5.45;;;;;;;11.14;72.38;95792.88;1679863;82;25312;-85
2021/11/04 07:04:09;;;;;;;11.00;5.58;;;;;;;11.19;72.22;95780.26;1696416;82;28472;-89
2021/11/04 07:06:47;;;;;;;9.08;5.67;;;;;;;11.25;72.07;95752.75;1696466;82;25273;-89
2021/11/04 07:09:13;;;;;;;10.35;5.45;;;;;;;11.31;71.95;95732.02;1696411;82;26392;-90
2021/11/04 07:11:41;;;;;;;7.30;4.67;;;;;;;11.37;71.75;95702.61;1696379;82;25961;-88
2021/11/04 07:14:07;;;;;;;7.92;4.95;;;;;;;11.45;71.64;95717.84;1696488;83;25744;-87
2021/11/04 07:16:34;;;;;;;8.25;4.53;;;;;;;11.52;71.44;95743.28;1696396;82;28159;-87
2021/11/04 07:19:01;;;;;;;8.53;4.55;;;;;;;11.58;71.29;95753.07;1696176;82;25783;-88
2021/11/04 07:21:48;;;;;;;6.67;4.30;;;;;;;11.65;71.11;95765.81;1696377;82;25706;-88
2021/11/04 07:24:29;;;;;;;9.80;4.67;;;;;;;11.72;70.96;95782.62;1696242;82;26110;-88
2021/11/04 07:27:00;;;;;;;6.62;4.50;;;;;;;11.78;70.85;95768.13;1695668;82;25822;-88
2021/11/04 07:29:30;;;;;;;6.17;4.53;;;;;;;11.83;70.63;95778.17;1696000;82;27557;-88
2021/11/04 07:31:58;;;;;;;7.83;4.78;;;;;;;11.88;70.51;95772.79;1678999;82;25870;-88
2021/11/04 07:34:26;;;;;;;7.28;4.45;;;;;;;11.90;70.36;95775.52;1696319;82;25842;-88
2021/11/04 07:36:53;;;;;;;6.67;4.42;;;;;;;11.95;70.28;95757.71;1696297;82;26770;-89
2021/11/04 07:39:19;;;;;;;6.42;4.12;;;;;;;11.97;70.07;95751.48;1696417;84;25818;-88
2021/11/04 07:41:46;;;;;;;8.65;4.33;;;;;;;12.00;69.98;95737.45;1696353;83;27924;-90
2021/11/04 07:44:12;;;;;;;10.23;4.95;;;;;;;12.02;69.90;95746.12;1696343;82;25807;-90
2021/11/04 07:46:39;;;;;;;5.72;3.90;;;;;;;12.06;69.77;95749.94;1696536;83;25791;-89
2021/11/04 07:49:06;;;;;;;9.18;3.92;;;;;;;12.09;69.62;95742.64;1696333;82;25984;-90
2021/11/04 07:51:37;;;;;;;7.40;4.37;;;;;;;12.10;69.44;95738.32;1696000;82;25747;-90
2021/11/04 07:54:05;;;;;;;7.80;4.65;;;;;;;12.13;69.44;95735.64;1695942;82;27437;-90
2021/11/04 07:56:34;;;;;;;8.55;4.50;;;;;;;12.16;69.36;95737.83;1697327;83;25869;-90
2021/11/04 07:59:01;;;;;;;9.08;4.47;;;;;;;12.17;69.24;95719.98;1721382;83;26419;-89
2021/11/04 08:01:27;;;;;;;8.48;4.10;;;;;;;12.20;69.15;95710.52;1725324;81;25986;-89
2021/11/04 08:03:54;;;;;;;7.05;4.67;;;;;;;12.22;69.13;95697.55;1760658;80;25714;-89
2021/11/04 08:06:21;;;;;;;8.80;4.92;;;;;;;12.25;68.97;95699.73;1727690;81;28317;-89
2021/11/04 08:08:48;;;;;;;6.92;4.37;;;;;;;12.28;68.87;95681.63;1721172;81;25740;-89
2021/11/04 08:11:15;;;;;;;5.60;4.10;;;;;;;12.34;68.82;95689.21;1721283;82;25718;-89
2021/11/04 08:13:43;;;;;;;5.95;3.45;;;;;;;12.37;68.79;95703.03;1692661;83;26061;-88
2021/11/04 08:16:09;;;;;;;9.73;5.28;;;;;;;12.43;68.75;95709.30;1721408;82;25723;-88
2021/11/04 08:18:36;;;;;;;10.03;6.30;;;;;;;12.50;68.64;95714.73;1721291;82;27392;-88
2021/11/04 08:21:03;;;;;;;9.58;5.67;;;;;;;12.58;68.58;95733.16;1720864;81;25794;-89
2021/11/04 08:23:29;;;;;;;11.08;5.87;;;;;;;12.65;68.46;95717.23;1721163;82;25845;-88
2021/11/04 08:25:56;;;;;;;16.57;9.03;;;;;;;12.70;68.40;95710.47;1721269;82;26440;-88
2021/11/04 08:28:22;;;;;;;8.88;5.45;;;;;;;12.77;68.34;95706.98;1722990;82;25706;-88
2021/11/04 08:30:50;;;;;;;8.53;4.80;;;;;;;12.82;68.14;95694.27;1746524;80;27307;-88
2021/11/04 08:33:18;;;;;;;8.73;5.33;;;;;;;12.89;68.02;95692.13;1730245;81;25810;-89
2021/11/04 08:35:44;;;;;;;10.78;5.83;;;;;;;12.94;68.12;95683.19;1721318;82;25301;-88
2021/11/04 08:38:11;;;;;;;9.10;4.60;;;;;;;13.01;68.02;95683.77;1744826;80;26050;-89
2021/11/04 08:40:38;;;;;;;5.42;3.60;;;;;;;13.09;67.85;95683.22;1725042;81;25696;-89
2021/11/04 08:43:04;;;;;;;8.23;3.77;;;;;;;13.18;67.81;95671.34;1721245;82;28264;-89
2021/11/04 08:45:31;;;;;;;4.92;3.10;;;;;;;13.24;67.67;95677.86;1721164;81;25786;-88
2021/11/04 08:48:00;;;;;;;6.20;3.55;;;;;;;13.34;67.60;95671.09;1721317;82;25782;-88
2021/11/04 08:50:26;;;;;;;5.62;3.50;;;;;;;13.46;67.59;95674.88;1721210;82;25734;-88
2021/11/04 08:52:54;;;;;;;5.10;2.98;;;;;;;13.65;67.58;95681.91;1734954;80;25775;-88
2021/11/04 08:55:21;;;;;;;9.38;4.47;;;;;;;13.87;67.47;95666.18;1734416;80;27413;-89
2021/11/04 08:57:53;;;;;;;8.45;3.60;;;;;;;14.08;67.28;95683.76;1721108;82;25810;-90
2021/11/04 09:00:21;;;;;;;6.28;4.12;;;;;;;14.30;67.08;95665.23;1721484;81;25767;-89
2021/11/04 09:02:48;;;;;;;5.87;3.02;;;;;;;14.52;66.87;95663.00;1721277;82;25996;-89
2021/11/04 09:05:15;;;;;;;3.75;2.70;;;;;;;14.74;66.51;95665.34;1742604;80;25542;-89
2021/11/04 09:07:44;;;;;;;5.75;4.25;;;;;;;14.95;66.19;95660.62;1755020;81;27358;-90
2021/11/04 09:10:13;;;;;;;6.08;3.52;;;;;;;15.13;65.68;95653.16;1721294;82;25769;-89
2021/11/04 09:12:41;;;;;;;8.53;4.67;;;;;;;15.28;65.32;95651.70;1721341;82;25806;-89
2021/11/04 09:15:11;;;;;;;7.90;4.17;;;;;;;15.45;64.93;95663.55;1737388;81;26053;-90
2021/11/04 09:17:38;;;;;;;5.70;3.35;;;;;;;15.58;64.61;95664.83;1731935;80;25846;-91
2021/11/04 09:20:07;;;;;;;8.70;4.83;;;;;;;15.72;64.47;95675.29;1722941;81;28172;-90
2021/11/04 09:22:36;;;;;;;9.55;5.08;;;;;;;15.85;63.97;95674.63;1728694;81;25868;-94
2021/11/04 09:25:04;;;;;;;8.70;4.10;;;;;;;16.01;63.88;95665.23;1759141;80;25810;-92
2021/11/04 09:27:31;;;;;;;6.55;3.55;;;;;;;16.12;63.47;95665.38;1740884;80;26773;-94
2021/11/04 09:30:00;;;;;;;6.45;2.92;;;;;;;16.24;63.05;95660.09;1758924;80;25796;-95
2021/11/04 09:32:27;;;;;;;4.97;2.80;;;;;;;16.31;62.77;95657.81;1755384;80;27381;-92
2021/11/04 09:34:53;;;;;;;5.62;3.45;;;;;;;16.41;62.43;95648.20;1758744;81;25789;-92
2021/11/04 09:37:20;;;;;;;4.30;3.37;;;;;;;16.58;62.43;95639.80;1726835;81;25845;-90
2021/11/04 09:39:50;;;;;;;5.80;2.70;;;;;;;16.81;62.32;95651.78;1758843;80;25974;-90
2021/11/04 09:42:19;;;;;;;4.83;3.33;;;;;;;17.10;61.91;95650.84;1727601;81;25821;-92
2021/11/04 09:44:47;;;;;;;5.47;3.00;;;;;;;17.40;61.55;95640.02;1745218;80;27433;-93
2021/11/04 09:47:21;;;;;;;4.83;2.75;;;;;;;17.76;61.05;95626.06;1751866;80;25331;-92
2021/11/04 09:49:51;;;;;;;5.70;4.00;;;;;;;18.06;60.46;95616.52;1731132;80;25813;-90
2021/11/04 09:52:24;;;;;;;5.72;3.50;;;;;;;18.40;60.16;95618.86;1741743;81;25989;-92
2021/11/04 09:54:53;;;;;;;7.42;3.02;;;;;;;18.67;59.48;95613.41;1724123;81;25702;-87
2021/11/04 09:57:25;;;;;;;4.83;2.62;;;;;;;19.00;59.11;95609.94;1724914;81;27369;-89
2021/11/04 09:59:54;;;;;;;2.95;1.98;;;;;;;19.31;58.50;95601.05;1725089;81;25737;-93
2021/11/04 10:02:24;;;;;;;3.25;1.90;;;;;;;19.66;58.10;95604.30;1725032;81;25702;-91
2021/11/04 10:04:51;;;;;;;2.77;1.80;;;;;;;19.93;57.39;95630.69;1745574;80;26789;-90
2021/11/04 10:07:20;;;;;;;3.60;1.77;;;;;;;20.14;56.86;95634.53;1741849;80;25745;-88
2021/11/04 10:10:02;;;;;;;2.25;1.35;;;;;;;20.23;56.34;95623.61;1744583;80;27468;-90
2021/11/04 10:12:29;;;;;;;2.27;1.17;;;;;;;20.29;55.50;95644.24;1739313;80;31621;-90
2021/11/04 10:15:13;;;;;;;3.40;1.60;;;;;;;20.24;55.03;95633.44;1748790;80;25927;-90
2021/11/04 10:17:40;;;;;;;2.30;1.22;;;;;;;20.30;54.80;95642.31;1725107;81;25976;-85
2021/11/04 10:20:18;;;;;;;1.62;1.27;;;;;;;20.29;54.23;95635.22;1720185;81;25281;-89
2021/11/04 10:23:01;;;;;;;2.02;1.47;;;;;;;20.23;53.87;95642.78;1709774;83;27420;-89
2021/11/04 10:25:29;;;;;;;1.55;1.30;;;;;;;20.04;53.57;95626.59;1709677;83;25814;-91
2021/11/04 10:27:56;;;;;;;2.33;1.40;;;;;;;19.88;53.69;95631.39;1694143;83;26278;-89
2021/11/04 10:30:41;;;;;;;1.87;1.55;;;;;;;19.70;53.46;95644.15;1709996;83;26000;-89
2021/11/04 10:33:33;;;;;;;2.70;1.12;;;;;;;19.55;53.49;95653.56;1710076;83;25834;-85
2021/11/04 10:36:16;;;;;;;2.13;1.70;;;;;;;19.36;53.20;95633.17;1710245;83;27380;-89
2021/11/04 10:38:47;;;;;;;3.37;1.60;;;;;;;19.15;53.33;95626.56;1709996;83;26379;-90
2021/11/04 10:41:30;;;;;;;2.08;1.87;;;;;;;19.06;53.72;95625.13;1710025;83;25777;-88
2021/11/04 10:44:12;;;;;;;2.40;1.50;;;;;;;18.98;53.66;95638.70;1710019;83;26304;-88
2021/11/04 10:46:52;;;;;;;3.17;1.57;;;;;;;18.87;53.58;95642.22;1710234;83;25778;-91
2021/11/04 10:49:27;;;;;;;2.40;1.85;;;;;;;18.79;53.66;95645.69;1711863;83;28166;-90
2021/11/04 10:52:08;;;;;;;4.30;1.52;;;;;;;18.75;53.80;95643.30;1713574;83;25725;-89
2021/11/04 10:54:44;;;;;;;2.83;1.67;;;;;;;18.70;54.01;95642.88;1710143;83;25805;-89
2021/11/04 10:57:11;;;;;;;5.92;3.90;;;;;;;18.61;53.84;95662.99;1709069;82;26840;-89
2021/11/04 10:59:49;;;;;;;3.22;1.90;;;;;;;18.52;54.03;95651.13;1710125;83;25682;-89
2021/11/04 11:02:17;;;;;;;3.90;2.75;;;;;;;18.48;54.07;95647.38;1709769;83;27609;-89
2021/11/04 11:04:44;;;;;;;3.67;2.70;;;;;;;18.40;54.16;95653.56;1693566;84;26735;-89
2021/11/04 11:07:11;;;;;;;3.35;2.40;;;;;;;18.34;54.16;95661.88;1709734;83;25762;-90
2021/11/04 11:09:39;;;;;;;3.77;2.50;;;;;;;18.31;54.22;95645.27;1693745;83;25992;-89
2021/11/04 11:12:08;;;;;;;3.08;2.55;;;;;;;18.29;54.25;95651.58;1689746;84;25839;-89
2021/11/04 11:14:40;;;;;;;3.67;3.30;;;;;;;18.27;54.53;95664.17;1689698;84;27401;-89
2021/11/04 11:17:09;;;;;;;3.12;1.62;;;;;;;18.21;54.37;95653.66;1689793;84;25757;-89
2021/11/04 11:19:44;;;;;;;3.25;2.20;;;;;;;18.17;54.58;95638.43;1689608;83;25794;-89
2021/11/04 11:22:15;;;;;;;2.15;1.80;;;;;;;18.11;54.55;95627.36;1689443;84;25738;-89
2021/11/04 11:24:44;;;;;;;3.98;1.92;;;;;;;18.07;54.95;95655.00;1693704;84;25727;-89
2021/11/04 11:27:17;;;;;;;4.22;2.15;;;;;;;18.02;54.99;95652.36;1689614;84;27386;-88
2021/11/04 11:29:47;;;;;;;4.97;3.10;;;;;;;17.96;54.93;95652.20;1714366;83;25827;-89
2021/11/04 11:32:21;;;;;;;6.60;2.87;;;;;;;17.91;55.26;95655.83;1689746;84;25701;-90
2021/11/04 11:34:49;;;;;;;5.55;3.92;;;;;;;17.94;55.26;95660.69;1689053;84;26804;-90
2021/11/04 11:37:21;;;;;;;7.97;4.12;;;;;;;17.96;55.57;95653.02;1693097;84;25862;-89